CEB435 RPLL-RPVE
Flight info
| Callsign | CEB435 |
|---|---|
| Flight time | N/A |
| Altitude | 23000 |
| Route | RDVXVERDE/13 13 VERDE W24 TAPER TAPE7A RPVE |
| Aircraft | A320/L-V/N |
Departure
| Time | N/A |
|---|---|
| Airport | Ninoy Aquino International Airport (RPLL) |
Arrival
| Time | 2026-05-04 10:37 |
|---|---|
| Airport | Godofredo P. Ramos Airport (RPVE) |
| Time | Latitude | Longitude | Altitude | Speed | Heading |
|---|---|---|---|---|---|
| 2026-05-04 10:10 | 13.59396 | 121.03210 | 22848 ft | 403 kts | 181° |
| 2026-05-04 10:10 | 13.56583 | 121.03199 | 22848 ft | 403 kts | 181° |
| 2026-05-04 10:10 | 13.53776 | 121.03219 | 22843 ft | 403 kts | 177° |
| 2026-05-04 10:10 | 13.51031 | 121.03663 | 22845 ft | 404 kts | 166° |
| 2026-05-04 10:11 | 13.48414 | 121.04666 | 22846 ft | 406 kts | 154° |
| 2026-05-04 10:11 | 13.46002 | 121.06158 | 22861 ft | 407 kts | 147° |
| 2026-05-04 10:11 | 13.43703 | 121.07797 | 22859 ft | 407 kts | 146° |
| 2026-05-04 10:11 | 13.41381 | 121.09473 | 22853 ft | 407 kts | 146° |
| 2026-05-04 10:12 | 13.39088 | 121.11111 | 22850 ft | 407 kts | 147° |
| 2026-05-04 10:12 | 13.36776 | 121.12746 | 22849 ft | 407 kts | 147° |
| 2026-05-04 10:12 | 13.34583 | 121.14288 | 22849 ft | 407 kts | 147° |
| 2026-05-04 10:12 | 13.32301 | 121.15887 | 22849 ft | 407 kts | 147° |
| 2026-05-04 10:13 | 13.30131 | 121.17409 | 22849 ft | 407 kts | 147° |
| 2026-05-04 10:13 | 13.27930 | 121.18951 | 22848 ft | 407 kts | 147° |
| 2026-05-04 10:13 | 13.25665 | 121.20539 | 22848 ft | 407 kts | 147° |
| 2026-05-04 10:13 | 13.23319 | 121.22184 | 22848 ft | 407 kts | 147° |
| 2026-05-04 10:14 | 13.21006 | 121.23805 | 22848 ft | 407 kts | 147° |
| 2026-05-04 10:14 | 13.18677 | 121.25438 | 22848 ft | 407 kts | 147° |
| 2026-05-04 10:16 | 13.02355 | 121.36871 | 22849 ft | 407 kts | 147° |
| 2026-05-04 10:16 | 13.00039 | 121.38491 | 22849 ft | 407 kts | 147° |
| 2026-05-04 10:16 | 12.97723 | 121.40111 | 22849 ft | 407 kts | 147° |
| 2026-05-04 10:16 | 12.95376 | 121.41753 | 22849 ft | 407 kts | 147° |
| 2026-05-04 10:17 | 12.93066 | 121.43368 | 22849 ft | 407 kts | 147° |
| 2026-05-04 10:17 | 12.90729 | 121.45002 | 22849 ft | 407 kts | 147° |
| 2026-05-04 10:19 | 12.74058 | 121.56615 | 19524 ft | 389 kts | 147° |
| 2026-05-04 10:19 | 12.71403 | 121.58468 | 18898 ft | 386 kts | 147° |
| 2026-05-04 10:19 | 12.69203 | 121.60003 | 18380 ft | 383 kts | 147° |
| 2026-05-04 10:20 | 12.67005 | 121.61536 | 17860 ft | 381 kts | 147° |
| 2026-05-04 10:20 | 12.64861 | 121.63032 | 17352 ft | 379 kts | 147° |
| 2026-05-04 10:20 | 12.62678 | 121.64555 | 16832 ft | 376 kts | 147° |
| 2026-05-04 10:20 | 12.60977 | 121.65743 | 16425 ft | 375 kts | 147° |
| 2026-05-04 10:21 | 12.60003 | 121.66428 | 16190 ft | 374 kts | 147° |
| 2026-05-04 10:21 | 12.58056 | 121.67799 | 15723 ft | 372 kts | 147° |
| 2026-05-04 10:21 | 12.56642 | 121.68792 | 15392 ft | 370 kts | 147° |
| 2026-05-04 10:21 | 12.54561 | 121.70250 | 14908 ft | 367 kts | 147° |
| 2026-05-04 10:22 | 12.50537 | 121.73058 | 13973 ft | 362 kts | 147° |
| 2026-05-04 10:23 | 12.42251 | 121.78826 | 12040 ft | 352 kts | 147° |
| 2026-05-04 10:25 | 12.27495 | 121.80823 | 9981 ft | 287 kts | 194° |
| 2026-05-04 10:25 | 12.25556 | 121.80386 | 9636 ft | 285 kts | 194° |
| 2026-05-04 10:25 | 12.23630 | 121.79954 | 9296 ft | 283 kts | 194° |
| 2026-05-04 10:25 | 12.21719 | 121.79530 | 8965 ft | 281 kts | 194° |
| 2026-05-04 10:26 | 12.19825 | 121.79113 | 8640 ft | 278 kts | 194° |
| 2026-05-04 10:26 | 12.17940 | 121.78701 | 8319 ft | 276 kts | 194° |
| 2026-05-04 10:26 | 12.16117 | 121.78304 | 8009 ft | 274 kts | 193° |
| 2026-05-04 10:26 | 12.14251 | 121.77899 | 7695 ft | 271 kts | 193° |
| 2026-05-04 10:27 | 12.12429 | 121.77505 | 7433 ft | 266 kts | 193° |
| 2026-05-04 10:27 | 12.10658 | 121.77123 | 7159 ft | 261 kts | 193° |
| 2026-05-04 10:27 | 12.08927 | 121.76748 | 6877 ft | 257 kts | 193° |
| 2026-05-04 10:27 | 12.07187 | 121.76372 | 6589 ft | 254 kts | 193° |
| 2026-05-04 10:28 | 12.05482 | 121.76004 | 6305 ft | 250 kts | 193° |
| 2026-05-04 10:28 | 12.04364 | 121.75762 | 6118 ft | 248 kts | 193° |
| 2026-05-04 10:28 | 12.02145 | 121.75283 | 5746 ft | 244 kts | 193° |
| 2026-05-04 10:28 | 12.00495 | 121.74927 | 5469 ft | 242 kts | 193° |
| 2026-05-04 10:29 | 11.98856 | 121.74573 | 5195 ft | 239 kts | 193° |
| 2026-05-04 10:29 | 11.97238 | 121.74223 | 4923 ft | 236 kts | 193° |
| 2026-05-04 10:29 | 11.95642 | 121.73878 | 4656 ft | 233 kts | 192° |
| 2026-05-04 10:29 | 11.94071 | 121.73541 | 4392 ft | 231 kts | 193° |
| 2026-05-04 10:30 | 11.92496 | 121.73204 | 4125 ft | 229 kts | 190° |
| 2026-05-04 10:30 | 11.90948 | 121.73187 | 3971 ft | 222 kts | 169° |
| 2026-05-04 10:30 | 11.89669 | 121.73609 | 4034 ft | 209 kts | 156° |
| 2026-05-04 10:30 | 11.88801 | 121.74040 | 3977 ft | 199 kts | 153° |
| 2026-05-04 10:31 | 11.87544 | 121.74718 | 3888 ft | 182 kts | 152° |
| 2026-05-04 10:31 | 11.86257 | 121.75417 | 3849 ft | 157 kts | 152° |
| 2026-05-04 10:32 | 11.84810 | 121.80173 | 3195 ft | 140 kts | 62° |
| 2026-05-04 10:33 | 11.85248 | 121.81060 | 3004 ft | 139 kts | 62° |
| 2026-05-04 10:33 | 11.85683 | 121.81932 | 2821 ft | 139 kts | 62° |
| 2026-05-04 10:33 | 11.86125 | 121.82808 | 2638 ft | 139 kts | 62° |
| 2026-05-04 10:33 | 11.86569 | 121.83688 | 2456 ft | 138 kts | 62° |
| 2026-05-04 10:34 | 11.87006 | 121.84552 | 2276 ft | 138 kts | 62° |
| 2026-05-04 10:34 | 11.87444 | 121.85420 | 2095 ft | 137 kts | 62° |
| 2026-05-04 10:34 | 11.87883 | 121.86291 | 1913 ft | 137 kts | 62° |
| 2026-05-04 10:34 | 11.88316 | 121.87151 | 1733 ft | 137 kts | 62° |
| 2026-05-04 10:35 | 11.88751 | 121.88015 | 1552 ft | 136 kts | 62° |
| 2026-05-04 10:35 | 11.89184 | 121.88875 | 1371 ft | 136 kts | 62° |
| 2026-05-04 10:35 | 11.89617 | 121.89737 | 1191 ft | 136 kts | 62° |
| 2026-05-04 10:35 | 11.90051 | 121.90599 | 1012 ft | 135 kts | 62° |
| 2026-05-04 10:36 | 11.90476 | 121.91444 | 833 ft | 135 kts | 62° |
| 2026-05-04 10:36 | 11.90904 | 121.92294 | 652 ft | 135 kts | 63° |
| 2026-05-04 10:36 | 11.91331 | 121.93147 | 487 ft | 135 kts | 63° |
| 2026-05-04 10:36 | 11.91746 | 121.93998 | 293 ft | 134 kts | 63° |
| 2026-05-04 10:37 | 11.92170 | 121.94843 | 79 ft | 133 kts | 63° |
| 2026-05-04 10:37 | 11.92580 | 121.95643 | 37 ft | 104 kts | 64° |
| 2026-05-04 10:37 | 11.92773 | 121.96030 | 56 ft | 29 kts | 60° |
| 2026-05-04 10:37 | 11.92789 | 121.96109 | 58 ft | 6 kts | 124° |
| 2026-05-04 10:39 | 11.92644 | 121.96224 | 58 ft | 6 kts | 75° |
| 2026-05-04 10:39 | 11.92662 | 121.96268 | 60 ft | 6 kts | 60° |
| 2026-05-04 10:39 | 11.92682 | 121.96305 | 61 ft | 5 kts | 62° |
| 2026-05-04 10:40 | 11.92697 | 121.96335 | 61 ft | 3 kts | 63° |
| 2026-05-04 10:40 | 11.92711 | 121.96363 | 62 ft | 7 kts | 63° |
| 2026-05-04 10:40 | 11.92723 | 121.96388 | 63 ft | 1 kts | 63° |
| 2026-05-04 10:40 | 11.92721 | 121.96410 | 63 ft | 4 kts | 143° |
| 2026-05-04 10:41 | 11.92693 | 121.96423 | 63 ft | 4 kts | 154° |
| 2026-05-04 10:41 | 11.92681 | 121.96430 | 62 ft | 0 kts | 153° |
| 2026-05-04 10:41 | 11.92680 | 121.96430 | 62 ft | 0 kts | 153° |